Aviation Digital Data Service (ADDS)

Output produced by TAFs form (0055 UTC 21 November 2017)
found at http://www.aviationweather.gov/adds/tafs/
 
KHOU 202321Z 2100/2124 11008KT P6SM FEW045 FEW200 SCT250 
     FM210300 17002KT P6SM SCT025 
     FM211400 15005KT P6SM SCT030 BKN040 
     FM211800 16006KT P6SM BKN050
       
KLBX 202321Z 2100/2124 12005KT P6SM OVC100 
     FM210300 VRB02KT P6SM SCT025 
     FM211000 00000KT 6SM BR SCT020 
     FM211500 15007KT P6SM BKN045